Time;durP1;ratioP1;P1;durP2;ratioP2;P2;SDS_P1;SDS_P2;PMS_P1;PMS_P2;Temp;Humidity;BMP_temperature;BMP_pressure;BME280_temperature;BME280_humidity;BME280_pressure;Samples;Min_cycle;Max_cycle;Signal;HPM_P1;HPM_P2
2022/07/19 00:00:46;;;;;;;9.68;6.07;;;;;;;34.21;31.48;101897.75;5090509;28;20413;-77
2022/07/19 00:03:12;;;;;;;10.90;6.28;;;;;;;34.19;31.81;101897.00;5094097;28;20042;-77
2022/07/19 00:05:37;;;;;;;9.25;5.72;;;;;;;33.99;31.94;101891.63;5095046;28;20488;-77
2022/07/19 00:08:03;;;;;;;9.75;6.25;;;;;;;34.17;31.64;101885.47;5095889;28;20035;-77
2022/07/19 00:10:29;;;;;;;10.70;5.60;;;;;;;33.91;32.33;101886.06;5094703;28;20024;-77
2022/07/19 00:12:54;;;;;;;11.98;6.07;;;;;;;34.12;32.14;101882.31;5095047;28;20059;-77
2022/07/19 00:15:19;;;;;;;7.70;5.47;;;;;;;34.08;32.58;101886.34;5095367;28;20360;-77
2022/07/19 00:17:47;;;;;;;9.25;5.80;;;;;;;34.14;31.74;101883.03;5094861;28;20032;-77
2022/07/19 00:20:14;;;;;;;10.50;6.30;;;;;;;33.93;32.05;101878.63;5094691;28;20020;-77
2022/07/19 00:22:40;;;;;;;7.90;5.57;;;;;;;34.15;31.49;101882.03;5094060;28;20045;-78
2022/07/19 00:25:06;;;;;;;8.75;5.85;;;;;;;34.22;31.18;101877.72;5094446;28;20555;-76
2022/07/19 00:27:32;;;;;;;7.35;5.63;;;;;;;33.90;31.88;101884.34;5094620;28;20123;-77
2022/07/19 00:29:57;;;;;;;7.75;5.55;;;;;;;33.82;31.08;101878.78;5093953;28;20095;-77
2022/07/19 00:32:22;;;;;;;10.02;5.53;;;;;;;33.64;31.03;101889.47;5095847;28;20024;-77
2022/07/19 00:34:48;;;;;;;9.98;5.80;;;;;;;34.09;30.21;101883.47;5094404;28;20103;-77
2022/07/19 00:37:13;;;;;;;8.82;5.70;;;;;;;34.06;30.48;101877.47;5093815;28;20054;-77
2022/07/19 00:39:38;;;;;;;10.32;5.72;;;;;;;33.99;29.83;101880.78;5098793;28;20047;-77
2022/07/19 00:42:04;;;;;;;10.40;5.60;;;;;;;33.83;31.38;101877.78;5116019;28;20483;-77
2022/07/19 00:44:30;;;;;;;11.90;6.50;;;;;;;33.77;30.28;101883.78;5096894;28;20051;-77
2022/07/19 00:46:56;;;;;;;8.70;5.75;;;;;;;33.84;30.93;101875.94;5097592;28;20107;-78
2022/07/19 00:49:22;;;;;;;9.82;5.82;;;;;;;33.73;31.32;101876.91;5097151;28;20061;-77
2022/07/19 00:51:51;;;;;;;7.10;5.15;;;;;;;34.12;30.31;101882.31;5096884;28;20425;-77
2022/07/19 00:54:18;;;;;;;9.70;6.20;;;;;;;33.86;30.60;101882.91;5115827;28;20019;-77
2022/07/19 00:56:46;;;;;;;7.63;5.60;;;;;;;33.88;30.81;101875.50;5096501;28;20088;-77
2022/07/19 00:59:12;;;;;;;7.55;5.85;;;;;;;33.87;30.87;101887.34;5097229;28;20072;-77
2022/07/19 01:01:39;;;;;;;9.40;6.15;;;;;;;33.61;31.42;101885.16;5097048;28;20024;-77
2022/07/19 01:04:04;;;;;;;13.27;6.63;;;;;;;33.71;30.12;101878.91;5114711;28;20119;-77
2022/07/19 01:06:30;;;;;;;12.75;5.47;;;;;;;33.39;31.78;101880.88;5097147;28;20153;-77
2022/07/19 01:08:56;;;;;;;7.63;5.13;;;;;;;33.78;31.00;101874.66;5096894;28;20471;-77
2022/07/19 01:11:21;;;;;;;9.20;5.82;;;;;;;33.42;31.93;101880.59;5096405;28;20491;-77
2022/07/19 01:13:47;;;;;;;10.45;5.90;;;;;;;33.64;31.50;101871.34;5096783;28;20042;-77
2022/07/19 01:16:12;;;;;;;8.20;5.40;;;;;;;33.41;31.53;101875.31;5096938;28;20467;-77
2022/07/19 01:18:37;;;;;;;8.13;6.13;;;;;;;33.64;30.62;101874.03;5096131;28;20114;-77
2022/07/19 01:21:04;;;;;;;8.65;6.70;;;;;;;33.73;30.76;101872.34;5096481;28;20072;-77
2022/07/19 01:23:29;;;;;;;8.05;6.10;;;;;;;33.54;30.72;101877.75;5096681;28;20035;-77
2022/07/19 01:25:55;;;;;;;11.73;6.55;;;;;;;33.40;31.44;101874.47;5114645;28;20020;-77
2022/07/19 01:28:20;;;;;;;8.05;5.90;;;;;;;33.59;31.20;101876.34;5114771;28;20038;-77
2022/07/19 01:30:46;;;;;;;8.88;6.55;;;;;;;33.41;31.64;101878.88;5096709;28;20016;-77
2022/07/19 01:33:11;;;;;;;9.27;6.97;;;;;;;33.14;32.05;101872.25;5096126;28;20360;-78
2022/07/19 01:35:37;;;;;;;10.63;7.00;;;;;;;33.10;31.92;101869.97;5096382;28;20024;-77
2022/07/19 01:38:02;;;;;;;9.45;6.35;;;;;;;33.42;31.63;101874.31;5096351;28;20020;-77
2022/07/19 01:40:28;;;;;;;12.10;6.93;;;;;;;33.39;31.09;101870.03;5095581;28;20177;-77
2022/07/19 01:42:53;;;;;;;10.15;6.72;;;;;;;33.31;31.86;101873.44;5096781;28;20024;-78
2022/07/19 01:45:19;;;;;;;13.00;7.28;;;;;;;33.28;31.31;101870.19;5114466;28;20031;-77
2022/07/19 01:47:45;;;;;;;14.07;7.63;;;;;;;33.41;31.34;101872.59;5114292;28;20228;-77
2022/07/19 01:50:13;;;;;;;12.40;8.05;;;;;;;33.36;31.00;101864.03;5096621;28;20023;-77
2022/07/19 01:52:39;;;;;;;11.32;7.57;;;;;;;33.27;30.79;101861.16;5096436;28;20030;-77
2022/07/19 01:55:06;;;;;;;12.25;7.20;;;;;;;33.28;31.31;101856.63;5095565;28;20023;-77
2022/07/19 01:57:32;;;;;;;10.90;7.63;;;;;;;33.30;30.85;101865.47;5096288;28;20054;-77
2022/07/19 01:59:58;;;;;;;13.57;7.70;;;;;;;33.20;30.51;101860.00;5114157;28;20047;-77
2022/07/19 02:02:23;;;;;;;12.90;7.95;;;;;;;33.20;30.57;101849.16;5114557;28;20039;-77
2022/07/19 02:04:49;;;;;;;11.82;7.80;;;;;;;33.30;30.58;101860.91;5096052;28;20015;-78
2022/07/19 02:07:14;;;;;;;12.75;8.68;;;;;;;33.36;30.74;101858.63;5095416;28;20030;-77
2022/07/19 02:09:39;;;;;;;13.52;8.07;;;;;;;33.38;30.42;101857.47;5114241;28;20030;-77
2022/07/19 02:12:05;;;;;;;12.32;7.95;;;;;;;33.46;29.90;101843.25;5096058;28;20467;-77
2022/07/19 02:14:30;;;;;;;16.02;8.50;;;;;;;33.00;31.02;101842.00;5095088;28;20035;-77
2022/07/19 02:16:56;;;;;;;14.30;8.98;;;;;;;32.88;30.99;101844.81;5114046;28;20046;-76
2022/07/19 02:19:21;;;;;;;15.23;8.55;;;;;;;33.00;30.68;101842.00;5095707;28;20027;-77
2022/07/19 02:21:47;;;;;;;13.65;9.60;;;;;;;32.77;31.01;101842.22;5095168;28;20481;-77
2022/07/19 02:24:12;;;;;;;14.80;8.90;;;;;;;32.97;31.14;101844.00;5094943;28;20028;-77
2022/07/19 02:26:38;;;;;;;18.40;8.93;;;;;;;33.08;30.30;101839.44;5095647;28;20555;-77
2022/07/19 02:29:03;;;;;;;22.50;10.05;;;;;;;33.07;30.83;101840.44;5094682;28;20027;-76
2022/07/19 02:31:28;;;;;;;13.98;8.95;;;;;;;33.18;31.19;101842.16;5095708;28;20030;-77
2022/07/19 02:33:54;;;;;;;14.95;9.13;;;;;;;33.04;31.11;101843.44;5095758;28;20020;-77
2022/07/19 02:36:20;;;;;;;13.63;9.10;;;;;;;33.05;31.39;101843.28;5094894;28;20019;-77
2022/07/19 02:38:45;;;;;;;20.77;10.00;;;;;;;32.76;32.22;101840.50;5095457;28;20031;-77
2022/07/19 02:41:11;;;;;;;16.60;8.88;;;;;;;32.76;31.71;101840.50;5113075;28;20052;-77
2022/07/19 02:43:37;;;;;;;17.27;9.77;;;;;;;32.64;31.52;101837.88;5094653;28;20029;-77
2022/07/19 02:46:03;;;;;;;16.83;9.82;;;;;;;33.04;31.12;101835.31;5095477;28;20027;-77
2022/07/19 02:48:28;;;;;;;15.05;9.70;;;;;;;33.03;31.09;101837.16;5095067;28;20016;-77
2022/07/19 02:50:54;;;;;;;13.65;9.73;;;;;;;32.72;32.14;101834.50;5112669;28;20020;-78
2022/07/19 02:53:19;;;;;;;21.40;10.38;;;;;;;32.76;32.02;101835.09;5095280;28;20034;-77
2022/07/19 02:55:45;;;;;;;18.25;10.43;;;;;;;32.73;31.97;101830.81;5094947;28;20030;-77
2022/07/19 02:58:10;;;;;;;15.95;10.30;;;;;;;32.78;32.04;101822.25;5112653;28;20471;-76
2022/07/19 03:00:36;;;;;;;16.88;10.50;;;;;;;32.41;33.36;101833.63;5094988;28;20472;-77
2022/07/19 03:05:46;;;;;;;14.57;9.43;;;;;;;32.54;32.52;101831.56;5113509;28;20043;-77
2022/07/19 03:08:11;;;;;;;14.77;9.90;;;;;;;32.60;32.23;101830.13;5094958;28;20577;-77
2022/07/19 03:10:37;;;;;;;15.38;10.07;;;;;;;32.55;32.62;101827.84;5094110;28;20111;-77
2022/07/19 03:13:02;;;;;;;17.17;11.10;;;;;;;32.52;32.79;101829.97;5095005;28;20020;-77
2022/07/19 03:15:28;;;;;;;17.48;11.18;;;;;;;32.39;32.47;101832.91;5094639;28;20027;-77
2022/07/19 03:17:53;;;;;;;16.08;10.20;;;;;;;32.28;32.70;101831.97;5112479;28;20034;-77
2022/07/19 03:20:18;;;;;;;18.98;11.00;;;;;;;32.17;33.29;101832.06;5094347;28;20063;-77
2022/07/19 03:22:44;;;;;;;17.25;12.00;;;;;;;32.32;33.38;101829.88;5094458;28;20027;-77
2022/07/19 03:25:09;;;;;;;16.90;10.98;;;;;;;32.32;33.18;101826.34;5094019;28;20023;-77
2022/07/19 03:27:35;;;;;;;16.92;11.48;;;;;;;32.24;33.05;101819.72;5094543;28;20027;-77
2022/07/19 03:30:00;;;;;;;16.17;10.63;;;;;;;32.20;32.74;101825.53;5094458;28;20042;-77
2022/07/19 03:32:26;;;;;;;17.92;11.35;;;;;;;32.19;32.61;101827.41;5112498;28;20031;-77
2022/07/19 03:34:52;;;;;;;17.13;11.43;;;;;;;32.45;32.05;101816.13;5112611;28;20091;-77
2022/07/19 03:37:17;;;;;;;17.75;11.18;;;;;;;32.38;32.09;101820.38;5094342;28;20023;-77
2022/07/19 03:39:43;;;;;;;19.85;12.25;;;;;;;32.04;32.52;101828.69;5111802;28;20048;-77
2022/07/19 03:42:09;;;;;;;18.52;11.18;;;;;;;32.09;32.50;101821.03;5112766;28;20059;-78
2022/07/19 03:44:34;;;;;;;16.58;11.00;;;;;;;32.04;32.70;101817.88;5094630;28;20067;-78
2022/07/19 03:46:59;;;;;;;16.20;10.75;;;;;;;31.97;32.42;101817.53;5093852;28;20031;-77
2022/07/19 03:49:25;;;;;;;16.75;10.65;;;;;;;31.71;33.31;101819.75;5094408;28;20031;-77
2022/07/19 03:51:50;;;;;;;18.48;11.90;;;;;;;31.70;32.91;101818.06;5094437;28;20015;-77
2022/07/19 03:54:15;;;;;;;18.02;11.98;;;;;;;31.83;33.11;101810.59;5093702;28;20110;-77
2022/07/19 03:56:41;;;;;;;17.58;11.45;;;;;;;32.00;33.20;101816.41;5094291;28;20490;-77
2022/07/19 03:59:06;;;;;;;17.50;10.88;;;;;;;31.87;33.04;101817.47;5094098;28;20027;-77
2022/07/19 04:01:31;;;;;;;18.40;11.63;;;;;;;32.02;33.05;101819.84;5111672;28;20064;-77
2022/07/19 04:03:57;;;;;;;20.67;12.15;;;;;;;32.08;32.72;101824.72;5112477;28;20027;-77
2022/07/19 04:06:22;;;;;;;16.85;10.27;;;;;;;32.15;32.59;101823.25;5093956;28;20118;-77
2022/07/19 04:08:47;;;;;;;19.88;11.93;;;;;;;32.18;32.59;101825.69;5093260;28;20058;-77
2022/07/19 04:11:13;;;;;;;17.63;10.43;;;;;;;32.53;31.68;101824.41;5112238;28;20019;-77
2022/07/19 04:13:38;;;;;;;16.10;10.93;;;;;;;32.04;32.44;101817.88;5111287;28;20111;-76
2022/07/19 04:16:04;;;;;;;15.45;11.52;;;;;;;32.36;31.71;101816.97;5112078;28;20055;-77
2022/07/19 04:18:29;;;;;;;15.50;10.02;;;;;;;32.23;32.05;101812.63;5112180;28;20039;-78
2022/07/19 04:20:55;;;;;;;18.95;11.70;;;;;;;32.05;31.81;101825.00;5111726;28;20028;-78
2022/07/19 04:23:20;;;;;;;20.27;12.15;;;;;;;32.27;31.33;101805.97;5094082;28;20083;-77
2022/07/19 04:25:46;;;;;;;16.00;10.93;;;;;;;32.55;31.11;101810.75;5093747;28;20035;-77
2022/07/19 04:28:11;;;;;;;19.58;11.30;;;;;;;32.38;31.58;101820.38;5093474;28;20031;-77
2022/07/19 04:30:36;;;;;;;16.75;11.57;;;;;;;32.56;31.04;101813.34;5094083;28;20035;-78
2022/07/19 04:33:02;;;;;;;16.70;11.13;;;;;;;32.29;31.23;101822.88;5094015;28;20077;-78
2022/07/19 04:35:27;;;;;;;15.77;10.63;;;;;;;32.42;31.79;101821.81;5093387;28;20024;-78
2022/07/19 04:37:53;;;;;;;15.57;10.52;;;;;;;32.52;31.14;101821.84;5112243;28;20023;-78
2022/07/19 04:40:18;;;;;;;18.75;11.10;;;;;;;32.50;31.52;101824.69;5093659;28;20621;-77
2022/07/19 04:42:44;;;;;;;17.33;11.38;;;;;;;32.53;31.00;101815.47;5093573;28;20388;-77
2022/07/19 04:45:09;;;;;;;13.70;10.27;;;;;;;32.61;31.59;101810.22;5094156;28;20034;-77
2022/07/19 04:47:35;;;;;;;15.80;10.77;;;;;;;32.79;30.81;101819.41;5094394;28;20068;-78
2022/07/19 04:50:00;;;;;;;15.18;10.52;;;;;;;32.59;31.24;101815.78;5096730;28;20024;-77
2022/07/19 04:52:26;;;;;;;17.33;11.35;;;;;;;32.76;31.10;101818.84;5115787;28;20483;-78
2022/07/19 04:54:51;;;;;;;19.55;11.98;;;;;;;32.80;30.95;101814.88;5097456;28;20080;-77
2022/07/19 04:57:16;;;;;;;17.33;11.38;;;;;;;33.45;29.88;101817.13;5114900;28;20456;-78
2022/07/19 04:59:42;;;;;;;16.98;11.05;;;;;;;33.56;29.44;101821.56;5097128;28;20077;-77
2022/07/19 05:02:07;;;;;;;15.73;10.52;;;;;;;33.76;29.27;101817.00;5097158;28;20106;-77
2022/07/19 05:04:33;;;;;;;16.00;10.52;;;;;;;33.49;29.82;101811.28;5096611;28;20094;-77
2022/07/19 05:06:58;;;;;;;17.58;11.45;;;;;;;33.40;30.15;101812.16;5097249;28;20469;-77
2022/07/19 05:09:28;;;;;;;20.77;11.95;;;;;;;33.68;29.35;101808.72;5096806;28;20050;-77
2022/07/19 05:11:54;;;;;;;18.30;10.98;;;;;;;33.51;29.95;101813.88;5096575;28;20064;-77
2022/07/19 05:14:20;;;;;;;16.98;12.13;;;;;;;33.68;29.55;101819.56;5115486;28;20027;-78
2022/07/19 05:16:46;;;;;;;19.00;10.93;;;;;;;33.46;29.80;101816.16;5097314;28;20168;-78
2022/07/19 05:19:11;;;;;;;18.98;10.27;;;;;;;33.81;29.11;101809.31;5096552;28;20079;-78
2022/07/19 05:21:37;;;;;;;19.63;11.80;;;;;;;33.82;28.54;101805.59;5096820;28;20496;-77
2022/07/19 05:24:02;;;;;;;18.52;12.30;;;;;;;33.80;28.87;101802.19;5096626;28;20029;-77
2022/07/19 05:26:28;;;;;;;17.63;11.30;;;;;;;33.63;29.89;101801.91;5096777;28;20395;-77
2022/07/19 05:28:54;;;;;;;14.77;10.27;;;;;;;33.82;29.32;101811.00;5096881;28;20023;-77
2022/07/19 05:31:19;;;;;;;13.90;9.60;;;;;;;33.92;29.49;101806.44;5096287;28;20019;-78
2022/07/19 05:33:44;;;;;;;16.48;11.18;;;;;;;34.33;28.34;101817.06;5114710;28;20420;-77
2022/07/19 05:36:10;;;;;;;21.60;11.68;;;;;;;34.11;28.75;101815.53;5096681;28;20043;-78
2022/07/19 05:38:40;;;;;;;16.60;10.95;;;;;;;34.32;28.73;101818.91;5096037;28;20485;-77
2022/07/19 05:41:10;;;;;;;23.10;11.98;;;;;;;33.14;30.26;101828.06;5096421;28;20043;-77
2022/07/19 05:43:38;;;;;;;14.75;10.57;;;;;;;33.75;28.92;101824.25;5096716;28;20364;-77
2022/07/19 05:46:04;;;;;;;16.70;11.15;;;;;;;34.23;28.40;101808.91;5095889;28;20020;-77
2022/07/19 05:48:29;;;;;;;19.17;11.20;;;;;;;34.18;28.95;101819.34;5096756;28;20108;-78
2022/07/19 05:50:55;;;;;;;15.65;9.77;;;;;;;33.89;29.87;101811.28;5096290;28;20417;-78
2022/07/19 05:53:20;;;;;;;16.50;11.40;;;;;;;34.44;28.82;101826.88;5114131;28;20028;-78
2022/07/19 05:55:46;;;;;;;16.45;11.40;;;;;;;34.14;29.42;101820.66;5096389;28;20071;-78
2022/07/19 05:58:11;;;;;;;18.30;11.10;;;;;;;34.44;28.73;101816.00;5096364;28;20016;-78
2022/07/19 06:00:37;;;;;;;15.68;10.85;;;;;;;34.04;29.86;101808.97;5095481;28;20024;-78
2022/07/19 06:03:03;;;;;;;17.77;10.82;;;;;;;34.52;29.17;101812.56;5114269;28;20023;-77
2022/07/19 06:05:28;;;;;;;17.08;11.07;;;;;;;34.59;28.78;101809.09;5114343;28;20383;-77
2022/07/19 06:07:53;;;;;;;19.73;12.40;;;;;;;34.52;28.99;101807.97;5095361;28;20463;-77
2022/07/19 06:10:19;;;;;;;16.92;11.20;;;;;;;34.85;28.77;101819.28;5095841;28;20106;-77
2022/07/19 06:12:44;;;;;;;15.85;11.25;;;;;;;34.81;28.85;101812.44;5114295;28;20054;-78
2022/07/19 06:15:10;;;;;;;21.02;11.20;;;;;;;35.41;27.87;101808.34;5095018;28;20110;-77
2022/07/19 06:17:35;;;;;;;17.08;11.10;;;;;;;35.78;28.44;101810.00;5095563;28;20378;-77
2022/07/19 06:20:01;;;;;;;15.52;10.68;;;;;;;35.06;29.16;101815.44;5095490;28;20088;-77
2022/07/19 06:22:30;;;;;;;18.85;11.57;;;;;;;35.39;28.97;101804.91;5113151;28;20118;-77
2022/07/19 06:24:55;;;;;;;23.42;11.35;;;;;;;35.39;28.82;101802.19;5095593;28;20031;-77
2022/07/19 06:27:20;;;;;;;16.15;11.80;;;;;;;35.62;28.84;101805.28;5094796;28;20038;-77
2022/07/19 06:29:46;;;;;;;18.80;11.88;;;;;;;35.66;28.29;101812.97;5095307;28;20149;-78
2022/07/19 06:32:11;;;;;;;17.83;12.30;;;;;;;35.39;29.06;101810.34;5095444;28;20048;-78
2022/07/19 06:34:36;;;;;;;19.55;12.15;;;;;;;35.07;28.53;101806.28;5094745;28;20454;-77
2022/07/19 06:37:02;;;;;;;20.55;12.48;;;;;;;36.87;26.65;101805.06;5095243;28;20039;-78
2022/07/19 06:39:27;;;;;;;21.95;12.13;;;;;;;38.68;24.43;101810.41;5113631;28;20450;-78
2022/07/19 06:41:52;;;;;;;20.73;12.65;;;;;;;40.30;22.02;101810.34;5094292;28;20043;-78
2022/07/19 06:44:18;;;;;;;18.52;10.82;;;;;;;40.17;21.33;101804.66;5113100;28;20026;-77
2022/07/19 06:46:44;;;;;;;20.45;10.25;;;;;;;41.51;20.17;101814.50;5113413;28;20034;-78
2022/07/19 06:49:09;;;;;;;14.95;10.15;;;;;;;42.04;19.38;101817.66;5094290;28;20057;-77
2022/07/19 06:51:35;;;;;;;16.63;10.90;;;;;;;41.35;20.67;101818.31;5095032;28;20022;-78
2022/07/19 06:54:00;;;;;;;20.05;10.40;;;;;;;41.40;20.36;101815.00;5113136;28;20073;-77
2022/07/19 06:56:25;;;;;;;16.25;10.65;;;;;;;42.30;19.41;101799.63;5094100;28;20494;-78
2022/07/19 06:58:51;;;;;;;14.93;9.45;;;;;;;42.86;20.74;101803.25;5094956;28;20023;-77
2022/07/19 07:01:18;;;;;;;15.60;8.73;;;;;;;43.42;19.50;101806.72;5094787;28;20135;-78
2022/07/19 07:03:43;;;;;;;16.23;10.05;;;;;;;44.53;16.87;101796.81;5112220;28;20043;-78
2022/07/19 07:06:08;;;;;;;20.42;10.68;;;;;;;42.63;18.77;101804.44;5112730;28;20102;-78
2022/07/19 07:08:34;;;;;;;15.48;9.88;;;;;;;43.84;17.91;101788.94;5094814;28;20483;-78
2022/07/19 07:11:00;;;;;;;17.13;9.85;;;;;;;43.78;18.41;101799.97;5111745;28;20035;-78
2022/07/19 07:13:25;;;;;;;17.25;9.90;;;;;;;44.46;17.60;101791.31;5112752;28;20497;-78
2022/07/19 07:15:51;;;;;;;15.52;9.65;;;;;;;45.01;17.35;101793.59;5112859;28;20027;-78
2022/07/19 07:18:16;;;;;;;15.65;9.73;;;;;;;44.44;17.34;101784.38;5094381;28;20107;-78
2022/07/19 07:20:42;;;;;;;18.35;10.55;;;;;;;45.51;17.69;101790.06;5094671;28;20382;-78
2022/07/19 07:23:07;;;;;;;15.13;9.88;;;;;;;46.69;15.90;101798.31;5094830;28;20355;-78
2022/07/19 07:25:32;;;;;;;15.02;10.60;;;;;;;46.21;15.91;101797.19;5112321;28;20096;-78
2022/07/19 07:27:58;;;;;;;15.05;9.82;;;;;;;44.68;16.88;101788.28;5094496;28;20030;-77
2022/07/19 07:30:23;;;;;;;16.90;9.80;;;;;;;46.60;15.59;101788.63;5094883;28;20356;-78
2022/07/19 07:32:49;;;;;;;15.25;10.13;;;;;;;45.32;16.42;101794.66;5094391;28;20030;-77
2022/07/19 07:35:14;;;;;;;14.82;10.18;;;;;;;46.04;16.68;101779.53;5094418;28;20030;-77
2022/07/19 07:37:40;;;;;;;15.02;10.52;;;;;;;46.03;16.03;101789.75;5093926;28;20055;-78
2022/07/19 07:40:05;;;;;;;14.40;10.07;;;;;;;46.39;16.83;101788.06;5094471;28;20035;-78
2022/07/19 07:42:31;;;;;;;18.05;10.30;;;;;;;46.84;15.50;101794.25;5112520;28;20043;-77
2022/07/19 07:44:59;;;;;;;15.80;10.05;;;;;;;46.89;15.70;101797.97;5093605;28;20031;-78
2022/07/19 07:47:24;;;;;;;15.15;9.73;;;;;;;46.39;15.69;101795.50;5094463;28;20841;-77
2022/07/19 07:49:50;;;;;;;15.35;9.18;;;;;;;46.59;15.86;101791.63;5094420;28;20051;-78
2022/07/19 07:52:16;;;;;;;12.98;9.70;;;;;;;46.62;15.62;101792.00;5093650;28;20059;-78
2022/07/19 07:54:41;;;;;;;14.52;8.93;;;;;;;45.89;16.94;101793.72;5094306;28;20122;-77
2022/07/19 07:57:08;;;;;;;15.20;9.93;;;;;;;46.52;15.70;101789.78;5094480;28;20512;-78
2022/07/19 07:59:33;;;;;;;11.90;9.23;;;;;;;47.61;16.01;101796.22;5111908;28;20031;-78
2022/07/19 08:01:58;;;;;;;15.48;9.93;;;;;;;47.98;14.94;101789.56;5094215;28;20024;-78
2022/07/19 08:04:24;;;;;;;12.23;9.32;;;;;;;46.38;15.15;101786.34;5094160;28;20478;-77
2022/07/19 08:06:49;;;;;;;14.10;9.85;;;;;;;48.61;14.36;101785.06;5093677;28;20042;-78
2022/07/19 08:09:15;;;;;;;16.40;9.55;;;;;;;47.25;15.47;101795.31;5094155;28;20122;-78
2022/07/19 08:11:40;;;;;;;15.85;8.85;;;;;;;47.84;15.41;101791.75;5112499;28;20047;-78
2022/07/19 08:14:06;;;;;;;10.63;7.70;;;;;;;48.38;14.63;101788.75;5111989;28;20062;-78
2022/07/19 08:16:31;;;;;;;11.30;7.40;;;;;;;48.83;15.16;101789.88;5094206;28;20080;-78
2022/07/19 08:18:58;;;;;;;12.57;8.25;;;;;;;47.96;14.87;101789.81;5094038;28;20020;-78
2022/07/19 08:21:23;;;;;;;9.05;7.78;;;;;;;48.10;14.72;101781.22;5093164;28;20023;-77
2022/07/19 08:23:48;;;;;;;12.70;7.57;;;;;;;47.45;15.81;101783.09;5115416;28;20031;-78
2022/07/19 08:26:14;;;;;;;11.63;7.65;;;;;;;47.79;15.15;101784.19;5097841;28;20114;-77
2022/07/19 08:28:39;;;;;;;12.23;8.40;;;;;;;47.28;15.31;101778.25;5097117;28;20031;-78
2022/07/19 08:31:05;;;;;;;12.38;7.47;;;;;;;49.02;14.99;101779.44;5116001;28;20498;-78
2022/07/19 08:33:30;;;;;;;10.15;7.25;;;;;;;48.50;15.50;101774.88;5097577;28;20024;-78
2022/07/19 08:35:55;;;;;;;17.38;7.32;;;;;;;48.79;13.77;101774.84;5096980;28;20031;-77
2022/07/19 08:38:21;;;;;;;12.57;7.13;;;;;;;48.98;14.44;101772.69;5097462;28;20130;-78
2022/07/19 08:40:51;;;;;;;12.68;7.80;;;;;;;46.79;15.51;101763.72;5097538;28;20039;-78
2022/07/19 08:43:18;;;;;;;12.68;7.40;;;;;;;47.09;14.39;101768.34;5115826;28;20027;-77
2022/07/19 08:45:43;;;;;;;19.80;7.13;;;;;;;48.44;13.96;101767.53;5097725;28;20024;-77
2022/07/19 08:48:09;;;;;;;11.57;6.75;;;;;;;47.99;14.62;101758.84;5096593;28;20160;-77
2022/07/19 08:50:35;;;;;;;11.25;7.43;;;;;;;49.82;12.83;101762.59;5097331;28;20085;-78
2022/07/19 08:53:01;;;;;;;14.20;6.70;;;;;;;48.54;14.06;101764.97;5097446;28;20027;-78
2022/07/19 08:55:27;;;;;;;14.00;6.90;;;;;;;49.68;12.84;101760.19;5114849;28;20035;-77
2022/07/19 08:58:00;;;;;;;11.43;6.25;;;;;;;49.89;13.59;101749.34;5115606;28;20387;-77
2022/07/19 09:00:30;;;;;;;13.45;6.53;;;;;;;49.10;13.25;101748.50;5097052;28;20043;-77
2022/07/19 09:03:00;;;;;;;9.00;5.60;;;;;;;50.41;13.04;101748.06;5096842;28;20080;-78
2022/07/19 09:05:26;;;;;;;8.65;5.20;;;;;;;50.74;12.86;101755.38;5097146;28;20449;-77
2022/07/19 09:08:05;;;;;;;8.43;4.43;;;;;;;51.03;11.79;101757.84;5115294;28;20099;-78
2022/07/19 09:10:31;;;;;;;12.02;4.30;;;;;;;50.07;12.52;101756.53;5096359;28;20031;-78
2022/07/19 09:13:03;;;;;;;7.78;4.82;;;;;;;49.77;12.69;101746.72;5096702;28;20019;-77
2022/07/19 09:15:42;;;;;;;7.00;3.42;;;;;;;49.65;12.78;101749.63;5096966;28;20543;-78
2022/07/19 09:18:24;;;;;;;12.68;3.50;;;;;;;49.48;12.64;101754.34;5096287;28;20491;-78
2022/07/19 09:20:52;;;;;;;5.93;2.90;;;;;;;51.33;12.99;101750.78;5096884;28;20415;-78
2022/07/19 09:23:19;;;;;;;7.50;3.10;;;;;;;51.62;11.07;101749.59;5096328;28;20487;-78
2022/07/19 09:25:53;;;;;;;3.05;2.60;;;;;;;51.47;12.50;101747.56;5115046;28;20024;-78
2022/07/19 09:28:21;;;;;;;4.85;2.20;;;;;;;53.26;10.46;101746.31;5115125;28;20090;-78
2022/07/19 09:30:48;;;;;;;9.68;2.70;;;;;;;51.48;10.74;101746.47;5114326;28;20023;-78
2022/07/19 09:33:20;;;;;;;4.32;2.50;;;;;;;52.10;10.98;101735.63;5096300;28;20030;-78
2022/07/19 09:35:48;;;;;;;7.53;2.80;;;;;;;50.82;12.46;101742.06;5096465;28;20038;-78
2022/07/19 09:38:32;;;;;;;7.95;2.40;;;;;;;52.57;10.24;101729.00;5114170;28;20026;-77
2022/07/19 09:41:09;;;;;;;4.32;2.03;;;;;;;49.93;11.97;101733.84;5096019;28;20040;-77
2022/07/19 09:43:51;;;;;;;6.82;2.40;;;;;;;49.85;11.58;101731.53;5096216;28;20386;-77
2022/07/19 09:46:47;;;;;;;;;;;;;;;50.99;11.78;101728.84;5096071;28;20046;-78
2022/07/19 09:49:16;;;;;;;5.43;2.22;;;;;;;50.86;12.01;101729.31;5079802;28;20006;-77
2022/07/19 09:51:45;;;;;;;4.40;1.70;;;;;;;50.74;11.92;101722.00;5095505;28;20027;-77
2022/07/19 09:54:13;;;;;;;7.43;2.15;;;;;;;50.87;11.97;101722.66;5114332;28;20029;-77
2022/07/19 09:56:40;;;;;;;4.07;2.10;;;;;;;51.98;11.72;101719.97;5095897;28;20073;-77
2022/07/19 09:59:06;;;;;;;5.13;2.47;;;;;;;52.05;11.71;101717.78;5095237;28;20394;-78
2022/07/19 10:01:32;;;;;;;9.38;2.10;;;;;;;51.53;11.76;101727.00;5095849;28;20072;-77
2022/07/19 10:04:02;;;;;;;5.00;2.30;;;;;;;52.60;11.54;101717.31;5095927;28;20043;-78
2022/07/19 10:06:27;;;;;;;5.00;1.77;;;;;;;50.35;12.44;101713.00;5095098;28;20028;-78
2022/07/19 10:08:54;;;;;;;5.45;2.10;;;;;;;51.68;11.96;101712.28;5113924;28;20034;-77
2022/07/19 10:11:20;;;;;;;3.72;1.85;;;;;;;52.10;10.53;101714.16;5095691;28;20491;-77
2022/07/19 10:13:50;;;;;;;4.97;1.95;;;;;;;50.14;11.92;101715.53;5094949;28;20045;-77
2022/07/19 10:16:24;;;;;;;8.13;2.30;;;;;;;50.71;11.95;101705.81;5114229;28;20368;-78
2022/07/19 10:19:08;;;;;;;3.88;1.90;;;;;;;49.87;12.49;101691.28;5113943;28;20132;-77
2022/07/19 10:21:35;;;;;;;3.85;1.67;;;;;;;50.13;11.85;101699.13;5094856;28;20028;-77
2022/07/19 10:24:01;;;;;;;5.32;1.73;;;;;;;51.40;10.79;101692.97;5113725;28;20684;-77
2022/07/19 10:26:40;;;;;;;4.57;1.75;;;;;;;50.92;11.61;101701.25;5113395;28;20028;-77
2022/07/19 10:29:15;;;;;;;4.00;1.73;;;;;;;51.29;12.05;101699.56;5113650;28;20031;-77
2022/07/19 10:31:40;;;;;;;11.27;2.08;;;;;;;51.59;11.25;101698.06;5095297;28;20027;-76
2022/07/19 10:34:08;;;;;;;1.92;1.58;;;;;;;51.01;11.29;101698.84;5112886;28;20084;-77
2022/07/19 10:36:43;;;;;;;6.15;1.63;;;;;;;51.31;11.26;101693.72;5113611;28;20038;-77
2022/07/19 10:39:18;;;;;;;2.92;1.65;;;;;;;50.26;12.42;101687.56;5095211;28;20487;-76
2022/07/19 10:42:10;;;;;;;4.13;1.60;;;;;;;50.71;11.94;101689.13;5091020;28;20131;-77
2022/07/19 10:44:59;;;;;;;4.18;2.10;;;;;;;49.95;12.32;101684.47;5091575;28;20028;-77
2022/07/19 10:47:45;;;;;;;3.70;2.08;;;;;;;48.99;12.80;101680.91;5093038;28;20024;-77
2022/07/19 10:50:16;;;;;;;4.30;2.10;;;;;;;48.79;13.03;101675.00;5074990;28;20159;-77
2022/07/19 10:52:42;;;;;;;4.38;2.50;;;;;;;49.10;13.33;101681.06;5093076;28;20057;-77
2022/07/19 10:55:17;;;;;;;6.47;1.98;;;;;;;49.17;12.38;101670.63;5091109;28;20028;-77
2022/07/19 10:57:48;;;;;;;3.95;1.80;;;;;;;49.59;12.37;101681.25;5091675;28;20023;-77
2022/07/19 11:00:30;;;;;;;2.13;1.67;;;;;;;49.75;12.06;101673.94;5092835;28;20028;-76
2022/07/19 11:03:21;;;;;;;3.22;1.63;;;;;;;49.67;11.50;101663.28;5090826;28;20023;-76
2022/07/19 11:05:47;;;;;;;4.37;1.90;;;;;;;49.67;12.04;101669.69;5092714;28;20475;-77
2022/07/19 11:08:13;;;;;;;3.03;1.88;;;;;;;49.55;12.64;101663.41;5091312;28;20081;-76
2022/07/19 11:10:39;;;;;;;3.05;1.70;;;;;;;50.02;12.42;101665.66;5090785;28;20016;-77
2022/07/19 11:13:06;;;;;;;5.53;2.00;;;;;;;49.94;13.13;101666.09;5092480;28;20027;-77
2022/07/19 11:15:31;;;;;;;5.07;1.92;;;;;;;50.17;12.60;101661.38;5092568;28;20390;-77
2022/07/19 11:18:00;;;;;;;8.48;2.33;;;;;;;48.75;13.13;101658.03;5090404;28;20028;-76